sensor_id;sensor_type;location;lat;lon;timestamp;P1;durP1;ratioP1;P2;durP2;ratioP2
40959;SDS011;27842;52.272;8.052;2024-01-30T00:01:51;20.53;;;9.77;;
40959;SDS011;27842;52.272;8.052;2024-01-30T00:04:17;20.97;;;10.40;;
40959;SDS011;27842;52.272;8.052;2024-01-30T00:06:43;20.23;;;10.07;;
40959;SDS011;27842;52.272;8.052;2024-01-30T00:09:09;21.00;;;10.87;;
40959;SDS011;27842;52.272;8.052;2024-01-30T00:11:35;17.80;;;9.53;;
40959;SDS011;27842;52.272;8.052;2024-01-30T00:14:01;20.77;;;10.23;;
40959;SDS011;27842;52.272;8.052;2024-01-30T00:16:28;18.33;;;9.47;;
40959;SDS011;27842;52.272;8.052;2024-01-30T00:18:54;20.50;;;9.80;;
40959;SDS011;27842;52.272;8.052;2024-01-30T00:21:20;20.37;;;9.80;;
40959;SDS011;27842;52.272;8.052;2024-01-30T00:23:46;21.83;;;9.93;;
40959;SDS011;27842;52.272;8.052;2024-01-30T00:26:12;19.57;;;9.90;;
40959;SDS011;27842;52.272;8.052;2024-01-30T00:28:39;18.70;;;9.37;;
40959;SDS011;27842;52.272;8.052;2024-01-30T00:31:05;18.03;;;9.03;;
40959;SDS011;27842;52.272;8.052;2024-01-30T00:33:31;18.03;;;9.23;;
40959;SDS011;27842;52.272;8.052;2024-01-30T00:35:56;18.70;;;9.43;;
40959;SDS011;27842;52.272;8.052;2024-01-30T00:38:22;18.43;;;9.30;;
40959;SDS011;27842;52.272;8.052;2024-01-30T00:40:48;20.27;;;9.97;;
40959;SDS011;27842;52.272;8.052;2024-01-30T00:43:13;23.27;;;10.00;;
40959;SDS011;27842;52.272;8.052;2024-01-30T00:45:40;17.90;;;9.03;;
40959;SDS011;27842;52.272;8.052;2024-01-30T00:48:05;17.07;;;8.93;;
40959;SDS011;27842;52.272;8.052;2024-01-30T00:50:31;20.50;;;9.27;;
40959;SDS011;27842;52.272;8.052;2024-01-30T00:52:57;22.17;;;10.40;;
40959;SDS011;27842;52.272;8.052;2024-01-30T00:55:22;18.73;;;9.27;;
40959;SDS011;27842;52.272;8.052;2024-01-30T00:57:48;21.63;;;10.33;;
40959;SDS011;27842;52.272;8.052;2024-01-30T01:00:14;19.33;;;9.43;;
40959;SDS011;27842;52.272;8.052;2024-01-30T01:02:42;20.37;;;9.37;;
40959;SDS011;27842;52.272;8.052;2024-01-30T01:05:08;17.70;;;8.97;;
40959;SDS011;27842;52.272;8.052;2024-01-30T01:07:34;17.83;;;9.23;;
40959;SDS011;27842;52.272;8.052;2024-01-30T01:09:59;19.40;;;9.37;;
40959;SDS011;27842;52.272;8.052;2024-01-30T01:12:25;18.90;;;9.30;;
40959;SDS011;27842;52.272;8.052;2024-01-30T01:14:51;17.97;;;9.47;;
40959;SDS011;27842;52.272;8.052;2024-01-30T01:17:16;19.43;;;9.57;;
40959;SDS011;27842;52.272;8.052;2024-01-30T01:19:43;18.37;;;9.27;;
40959;SDS011;27842;52.272;8.052;2024-01-30T01:22:09;19.00;;;9.37;;
40959;SDS011;27842;52.272;8.052;2024-01-30T01:24:35;19.17;;;9.23;;
40959;SDS011;27842;52.272;8.052;2024-01-30T01:27:01;18.33;;;9.07;;
40959;SDS011;27842;52.272;8.052;2024-01-30T01:29:27;17.93;;;9.30;;
40959;SDS011;27842;52.272;8.052;2024-01-30T01:31:55;19.83;;;9.73;;
40959;SDS011;27842;52.272;8.052;2024-01-30T01:34:21;21.83;;;9.93;;
40959;SDS011;27842;52.272;8.052;2024-01-30T01:36:48;18.23;;;8.67;;
40959;SDS011;27842;52.272;8.052;2024-01-30T01:39:14;20.47;;;9.83;;
40959;SDS011;27842;52.272;8.052;2024-01-30T01:41:40;19.00;;;9.53;;
40959;SDS011;27842;52.272;8.052;2024-01-30T01:44:06;22.47;;;8.60;;
40959;SDS011;27842;52.272;8.052;2024-01-30T01:46:32;18.10;;;8.37;;
40959;SDS011;27842;52.272;8.052;2024-01-30T01:48:58;20.37;;;9.30;;
40959;SDS011;27842;52.272;8.052;2024-01-30T01:51:27;18.60;;;9.27;;
40959;SDS011;27842;52.272;8.052;2024-01-30T01:53:53;19.17;;;9.07;;
40959;SDS011;27842;52.272;8.052;2024-01-30T01:56:21;19.80;;;9.83;;
40959;SDS011;27842;52.272;8.052;2024-01-30T01:58:48;18.27;;;9.47;;
40959;SDS011;27842;52.272;8.052;2024-01-30T02:01:14;18.47;;;8.53;;
40959;SDS011;27842;52.272;8.052;2024-01-30T02:03:43;21.67;;;9.77;;
40959;SDS011;27842;52.272;8.052;2024-01-30T02:06:10;19.13;;;9.87;;
40959;SDS011;27842;52.272;8.052;2024-01-30T02:08:37;19.70;;;10.13;;
40959;SDS011;27842;52.272;8.052;2024-01-30T02:11:03;18.67;;;9.30;;
40959;SDS011;27842;52.272;8.052;2024-01-30T02:13:28;19.00;;;9.67;;
40959;SDS011;27842;52.272;8.052;2024-01-30T02:15:54;18.10;;;8.93;;
40959;SDS011;27842;52.272;8.052;2024-01-30T02:18:20;18.47;;;9.13;;
40959;SDS011;27842;52.272;8.052;2024-01-30T02:20:48;20.35;;;9.15;;
40959;SDS011;27842;52.272;8.052;2024-01-30T02:23:16;19.20;;;8.97;;
40959;SDS011;27842;52.272;8.052;2024-01-30T02:25:41;18.63;;;9.43;;
40959;SDS011;27842;52.272;8.052;2024-01-30T02:28:11;18.87;;;9.17;;
40959;SDS011;27842;52.272;8.052;2024-01-30T02:30:37;18.87;;;10.47;;
40959;SDS011;27842;52.272;8.052;2024-01-30T02:33:09;17.80;;;9.67;;
40959;SDS011;27842;52.272;8.052;2024-01-30T02:35:35;19.83;;;9.07;;
40959;SDS011;27842;52.272;8.052;2024-01-30T02:38:01;20.23;;;9.17;;
40959;SDS011;27842;52.272;8.052;2024-01-30T02:40:26;20.80;;;9.63;;
40959;SDS011;27842;52.272;8.052;2024-01-30T02:42:52;20.50;;;9.43;;
40959;SDS011;27842;52.272;8.052;2024-01-30T02:45:17;20.30;;;9.27;;
40959;SDS011;27842;52.272;8.052;2024-01-30T02:47:43;19.20;;;9.13;;
40959;SDS011;27842;52.272;8.052;2024-01-30T02:50:09;19.60;;;9.70;;
40959;SDS011;27842;52.272;8.052;2024-01-30T02:52:34;19.30;;;9.37;;
40959;SDS011;27842;52.272;8.052;2024-01-30T02:55:00;18.20;;;8.93;;
40959;SDS011;27842;52.272;8.052;2024-01-30T02:57:27;18.97;;;8.30;;
40959;SDS011;27842;52.272;8.052;2024-01-30T02:59:52;19.37;;;9.87;;
40959;SDS011;27842;52.272;8.052;2024-01-30T03:02:18;17.53;;;8.17;;
40959;SDS011;27842;52.272;8.052;2024-01-30T03:04:43;17.30;;;8.37;;
40959;SDS011;27842;52.272;8.052;2024-01-30T03:07:09;19.07;;;9.57;;
40959;SDS011;27842;52.272;8.052;2024-01-30T03:09:35;20.23;;;9.03;;
40959;SDS011;27842;52.272;8.052;2024-01-30T03:12:01;18.73;;;9.30;;
40959;SDS011;27842;52.272;8.052;2024-01-30T03:14:27;16.77;;;8.67;;
40959;SDS011;27842;52.272;8.052;2024-01-30T03:16:52;18.63;;;8.80;;
40959;SDS011;27842;52.272;8.052;2024-01-30T03:19:18;17.87;;;8.40;;
40959;SDS011;27842;52.272;8.052;2024-01-30T03:21:43;18.77;;;9.13;;
40959;SDS011;27842;52.272;8.052;2024-01-30T03:24:09;19.30;;;9.30;;
40959;SDS011;27842;52.272;8.052;2024-01-30T03:26:35;19.30;;;8.40;;
40959;SDS011;27842;52.272;8.052;2024-01-30T03:29:00;20.73;;;9.90;;
40959;SDS011;27842;52.272;8.052;2024-01-30T03:31:26;19.43;;;8.93;;
40959;SDS011;27842;52.272;8.052;2024-01-30T03:33:52;18.07;;;8.93;;
40959;SDS011;27842;52.272;8.052;2024-01-30T03:36:17;17.90;;;8.67;;
40959;SDS011;27842;52.272;8.052;2024-01-30T03:38:43;20.50;;;9.37;;
40959;SDS011;27842;52.272;8.052;2024-01-30T03:41:08;17.93;;;8.60;;
40959;SDS011;27842;52.272;8.052;2024-01-30T03:43:34;18.73;;;8.90;;
40959;SDS011;27842;52.272;8.052;2024-01-30T03:46:01;18.23;;;9.30;;
40959;SDS011;27842;52.272;8.052;2024-01-30T03:48:27;19.97;;;9.13;;
40959;SDS011;27842;52.272;8.052;2024-01-30T03:50:53;19.07;;;9.17;;
40959;SDS011;27842;52.272;8.052;2024-01-30T03:53:19;21.93;;;9.37;;
40959;SDS011;27842;52.272;8.052;2024-01-30T03:55:45;18.37;;;8.67;;
40959;SDS011;27842;52.272;8.052;2024-01-30T03:58:10;18.43;;;9.10;;
40959;SDS011;27842;52.272;8.052;2024-01-30T04:00:36;19.83;;;8.57;;
40959;SDS011;27842;52.272;8.052;2024-01-30T04:03:02;19.23;;;9.20;;
40959;SDS011;27842;52.272;8.052;2024-01-30T04:05:27;17.70;;;8.77;;
40959;SDS011;27842;52.272;8.052;2024-01-30T04:07:53;18.90;;;9.30;;
40959;SDS011;27842;52.272;8.052;2024-01-30T04:10:19;18.27;;;8.30;;
40959;SDS011;27842;52.272;8.052;2024-01-30T04:12:44;19.10;;;9.43;;
40959;SDS011;27842;52.272;8.052;2024-01-30T04:15:10;18.10;;;8.90;;
40959;SDS011;27842;52.272;8.052;2024-01-30T04:17:35;19.33;;;9.40;;
40959;SDS011;27842;52.272;8.052;2024-01-30T04:20:01;19.27;;;8.90;;
40959;SDS011;27842;52.272;8.052;2024-01-30T04:22:27;19.63;;;8.83;;
40959;SDS011;27842;52.272;8.052;2024-01-30T04:24:52;18.67;;;7.83;;
40959;SDS011;27842;52.272;8.052;2024-01-30T04:27:18;16.90;;;8.87;;
40959;SDS011;27842;52.272;8.052;2024-01-30T04:29:43;18.27;;;8.30;;
40959;SDS011;27842;52.272;8.052;2024-01-30T04:32:09;18.23;;;9.27;;
40959;SDS011;27842;52.272;8.052;2024-01-30T04:34:36;19.47;;;8.77;;
40959;SDS011;27842;52.272;8.052;2024-01-30T04:37:02;19.33;;;8.70;;
40959;SDS011;27842;52.272;8.052;2024-01-30T04:39:27;19.67;;;8.97;;
40959;SDS011;27842;52.272;8.052;2024-01-30T04:41:53;19.73;;;8.63;;
40959;SDS011;27842;52.272;8.052;2024-01-30T04:44:19;17.83;;;8.83;;
40959;SDS011;27842;52.272;8.052;2024-01-30T04:46:44;18.63;;;8.97;;
40959;SDS011;27842;52.272;8.052;2024-01-30T04:49:10;18.23;;;8.97;;
40959;SDS011;27842;52.272;8.052;2024-01-30T04:51:36;21.67;;;8.97;;
40959;SDS011;27842;52.272;8.052;2024-01-30T04:54:01;21.63;;;8.60;;
40959;SDS011;27842;52.272;8.052;2024-01-30T04:56:27;19.30;;;9.07;;
40959;SDS011;27842;52.272;8.052;2024-01-30T04:58:52;20.40;;;9.00;;
40959;SDS011;27842;52.272;8.052;2024-01-30T05:01:18;18.47;;;8.97;;
40959;SDS011;27842;52.272;8.052;2024-01-30T05:03:44;20.50;;;8.83;;
40959;SDS011;27842;52.272;8.052;2024-01-30T05:06:09;21.07;;;10.13;;
40959;SDS011;27842;52.272;8.052;2024-01-30T05:08:35;19.67;;;8.30;;
40959;SDS011;27842;52.272;8.052;2024-01-30T05:11:05;21.47;;;9.27;;
40959;SDS011;27842;52.272;8.052;2024-01-30T05:13:31;21.60;;;9.83;;
40959;SDS011;27842;52.272;8.052;2024-01-30T05:15:56;24.87;;;9.17;;
40959;SDS011;27842;52.272;8.052;2024-01-30T05:18:22;17.53;;;8.90;;
40959;SDS011;27842;52.272;8.052;2024-01-30T05:20:49;21.93;;;9.30;;
40959;SDS011;27842;52.272;8.052;2024-01-30T05:23:15;19.80;;;9.63;;
40959;SDS011;27842;52.272;8.052;2024-01-30T05:25:40;19.20;;;9.47;;
40959;SDS011;27842;52.272;8.052;2024-01-30T05:28:06;21.60;;;9.20;;
40959;SDS011;27842;52.272;8.052;2024-01-30T05:30:31;21.50;;;10.13;;
40959;SDS011;27842;52.272;8.052;2024-01-30T05:32:57;20.57;;;9.20;;
40959;SDS011;27842;52.272;8.052;2024-01-30T05:35:22;18.37;;;8.93;;
40959;SDS011;27842;52.272;8.052;2024-01-30T05:37:48;19.47;;;8.80;;
40959;SDS011;27842;52.272;8.052;2024-01-30T05:40:15;21.70;;;10.30;;
40959;SDS011;27842;52.272;8.052;2024-01-30T05:42:40;19.73;;;8.83;;
40959;SDS011;27842;52.272;8.052;2024-01-30T05:45:06;22.23;;;9.83;;
40959;SDS011;27842;52.272;8.052;2024-01-30T05:47:33;18.13;;;8.47;;
40959;SDS011;27842;52.272;8.052;2024-01-30T05:49:58;19.03;;;9.13;;
40959;SDS011;27842;52.272;8.052;2024-01-30T05:52:24;18.07;;;9.03;;
40959;SDS011;27842;52.272;8.052;2024-01-30T05:54:50;19.53;;;9.50;;
40959;SDS011;27842;52.272;8.052;2024-01-30T05:57:15;21.00;;;9.47;;
40959;SDS011;27842;52.272;8.052;2024-01-30T05:59:41;20.30;;;9.60;;
40959;SDS011;27842;52.272;8.052;2024-01-30T06:02:09;22.77;;;9.70;;
40959;SDS011;27842;52.272;8.052;2024-01-30T06:04:36;21.27;;;10.00;;
40959;SDS011;27842;52.272;8.052;2024-01-30T06:07:02;19.67;;;9.87;;
40959;SDS011;27842;52.272;8.052;2024-01-30T06:09:27;19.67;;;9.07;;
40959;SDS011;27842;52.272;8.052;2024-01-30T06:11:54;20.53;;;9.70;;
40959;SDS011;27842;52.272;8.052;2024-01-30T06:14:20;20.83;;;9.70;;
40959;SDS011;27842;52.272;8.052;2024-01-30T06:16:46;20.47;;;9.53;;
40959;SDS011;27842;52.272;8.052;2024-01-30T06:19:11;20.27;;;8.77;;
40959;SDS011;27842;52.272;8.052;2024-01-30T06:21:37;19.03;;;8.53;;
40959;SDS011;27842;52.272;8.052;2024-01-30T06:24:03;20.57;;;9.13;;
40959;SDS011;27842;52.272;8.052;2024-01-30T06:26:29;19.33;;;8.83;;
40959;SDS011;27842;52.272;8.052;2024-01-30T06:28:54;22.50;;;9.07;;
40959;SDS011;27842;52.272;8.052;2024-01-30T06:31:20;24.37;;;10.00;;
40959;SDS011;27842;52.272;8.052;2024-01-30T06:33:49;26.17;;;10.43;;
40959;SDS011;27842;52.272;8.052;2024-01-30T06:36:14;22.75;;;10.45;;
40959;SDS011;27842;52.272;8.052;2024-01-30T06:38:40;19.93;;;10.03;;
40959;SDS011;27842;52.272;8.052;2024-01-30T06:41:06;21.40;;;9.97;;
40959;SDS011;27842;52.272;8.052;2024-01-30T06:43:32;19.43;;;9.60;;
40959;SDS011;27842;52.272;8.052;2024-01-30T06:45:57;21.23;;;9.90;;
40959;SDS011;27842;52.272;8.052;2024-01-30T06:48:23;21.30;;;9.73;;
40959;SDS011;27842;52.272;8.052;2024-01-30T06:50:48;20.70;;;9.73;;
40959;SDS011;27842;52.272;8.052;2024-01-30T06:53:15;18.90;;;9.37;;
40959;SDS011;27842;52.272;8.052;2024-01-30T06:55:41;19.50;;;8.37;;
40959;SDS011;27842;52.272;8.052;2024-01-30T06:58:06;21.57;;;8.67;;
40959;SDS011;27842;52.272;8.052;2024-01-30T07:00:32;20.90;;;8.83;;
40959;SDS011;27842;52.272;8.052;2024-01-30T07:02:57;19.63;;;8.03;;
40959;SDS011;27842;52.272;8.052;2024-01-30T07:05:23;24.77;;;8.90;;
40959;SDS011;27842;52.272;8.052;2024-01-30T07:07:49;18.37;;;7.57;;
40959;SDS011;27842;52.272;8.052;2024-01-30T07:10:14;17.40;;;7.10;;
40959;SDS011;27842;52.272;8.052;2024-01-30T07:12:40;20.00;;;8.50;;
40959;SDS011;27842;52.272;8.052;2024-01-30T07:15:05;18.73;;;8.97;;
40959;SDS011;27842;52.272;8.052;2024-01-30T07:17:34;19.13;;;7.50;;
40959;SDS011;27842;52.272;8.052;2024-01-30T07:20:00;18.60;;;8.00;;
40959;SDS011;27842;52.272;8.052;2024-01-30T07:22:28;21.10;;;8.20;;
40959;SDS011;27842;52.272;8.052;2024-01-30T07:24:54;19.00;;;8.33;;
40959;SDS011;27842;52.272;8.052;2024-01-30T07:27:20;21.27;;;8.93;;
40959;SDS011;27842;52.272;8.052;2024-01-30T07:29:46;18.27;;;8.77;;
40959;SDS011;27842;52.272;8.052;2024-01-30T07:32:12;17.63;;;9.17;;
40959;SDS011;27842;52.272;8.052;2024-01-30T07:34:38;19.73;;;9.13;;
40959;SDS011;27842;52.272;8.052;2024-01-30T07:37:04;21.47;;;8.70;;
40959;SDS011;27842;52.272;8.052;2024-01-30T07:39:29;20.03;;;8.90;;
40959;SDS011;27842;52.272;8.052;2024-01-30T07:41:55;22.27;;;9.53;;
40959;SDS011;27842;52.272;8.052;2024-01-30T07:44:21;18.90;;;8.90;;
40959;SDS011;27842;52.272;8.052;2024-01-30T07:46:48;20.33;;;9.90;;
40959;SDS011;27842;52.272;8.052;2024-01-30T07:49:14;19.33;;;8.70;;
40959;SDS011;27842;52.272;8.052;2024-01-30T07:51:39;19.17;;;7.90;;
40959;SDS011;27842;52.272;8.052;2024-01-30T07:54:05;18.70;;;7.83;;
40959;SDS011;27842;52.272;8.052;2024-01-30T07:56:31;17.70;;;7.30;;
40959;SDS011;27842;52.272;8.052;2024-01-30T07:58:56;18.13;;;7.97;;
40959;SDS011;27842;52.272;8.052;2024-01-30T08:01:22;20.00;;;7.90;;
40959;SDS011;27842;52.272;8.052;2024-01-30T08:03:47;17.57;;;7.37;;
40959;SDS011;27842;52.272;8.052;2024-01-30T08:06:13;14.80;;;6.70;;
40959;SDS011;27842;52.272;8.052;2024-01-30T08:08:39;18.57;;;6.97;;
40959;SDS011;27842;52.272;8.052;2024-01-30T08:11:04;17.97;;;6.83;;
40959;SDS011;27842;52.272;8.052;2024-01-30T08:13:30;16.90;;;6.43;;
40959;SDS011;27842;52.272;8.052;2024-01-30T08:15:56;17.67;;;6.33;;
40959;SDS011;27842;52.272;8.052;2024-01-30T08:18:21;20.20;;;6.90;;
40959;SDS011;27842;52.272;8.052;2024-01-30T08:20:47;16.47;;;6.90;;
40959;SDS011;27842;52.272;8.052;2024-01-30T08:23:14;15.60;;;6.20;;
40959;SDS011;27842;52.272;8.052;2024-01-30T08:25:39;15.63;;;6.57;;
40959;SDS011;27842;52.272;8.052;2024-01-30T08:28:05;17.00;;;7.00;;
40959;SDS011;27842;52.272;8.052;2024-01-30T08:30:32;18.63;;;7.07;;
40959;SDS011;27842;52.272;8.052;2024-01-30T08:32:57;20.92;;;6.75;;
40959;SDS011;27842;52.272;8.052;2024-01-30T08:35:23;19.33;;;7.60;;
40959;SDS011;27842;52.272;8.052;2024-01-30T08:37:49;21.55;;;7.13;;
40959;SDS011;27842;52.272;8.052;2024-01-30T08:40:14;22.67;;;7.53;;
40959;SDS011;27842;52.272;8.052;2024-01-30T08:42:40;19.17;;;6.43;;
40959;SDS011;27842;52.272;8.052;2024-01-30T08:45:06;16.98;;;6.68;;
40959;SDS011;27842;52.272;8.052;2024-01-30T08:47:31;18.83;;;7.22;;
40959;SDS011;27842;52.272;8.052;2024-01-30T08:49:58;16.00;;;6.55;;
40959;SDS011;27842;52.272;8.052;2024-01-30T08:52:24;16.88;;;6.40;;
40959;SDS011;27842;52.272;8.052;2024-01-30T08:54:49;20.92;;;7.00;;
40959;SDS011;27842;52.272;8.052;2024-01-30T08:57:15;16.98;;;6.28;;
40959;SDS011;27842;52.272;8.052;2024-01-30T08:59:40;14.27;;;6.10;;
40959;SDS011;27842;52.272;8.052;2024-01-30T09:02:09;15.93;;;6.53;;
40959;SDS011;27842;52.272;8.052;2024-01-30T09:04:35;18.27;;;6.70;;
40959;SDS011;27842;52.272;8.052;2024-01-30T09:07:00;15.75;;;7.07;;
40959;SDS011;27842;52.272;8.052;2024-01-30T09:09:26;16.80;;;6.82;;
40959;SDS011;27842;52.272;8.052;2024-01-30T09:11:51;19.80;;;7.00;;
40959;SDS011;27842;52.272;8.052;2024-01-30T09:14:17;19.55;;;6.32;;
40959;SDS011;27842;52.272;8.052;2024-01-30T09:16:42;15.52;;;6.53;;
40959;SDS011;27842;52.272;8.052;2024-01-30T09:19:08;17.40;;;6.70;;
40959;SDS011;27842;52.272;8.052;2024-01-30T09:21:34;18.25;;;7.22;;
40959;SDS011;27842;52.272;8.052;2024-01-30T09:24:03;17.95;;;7.05;;
40959;SDS011;27842;52.272;8.052;2024-01-30T09:26:29;18.15;;;6.97;;
40959;SDS011;27842;52.272;8.052;2024-01-30T09:28:54;17.50;;;6.87;;
40959;SDS011;27842;52.272;8.052;2024-01-30T09:31:20;17.97;;;7.00;;
40959;SDS011;27842;52.272;8.052;2024-01-30T09:33:45;16.57;;;6.90;;
40959;SDS011;27842;52.272;8.052;2024-01-30T09:36:13;19.02;;;6.88;;
40959;SDS011;27842;52.272;8.052;2024-01-30T09:38:40;16.23;;;7.03;;
40959;SDS011;27842;52.272;8.052;2024-01-30T09:41:07;16.88;;;6.93;;
40959;SDS011;27842;52.272;8.052;2024-01-30T09:43:36;19.33;;;8.63;;
40959;SDS011;27842;52.272;8.052;2024-01-30T09:46:03;18.98;;;6.82;;
40959;SDS011;27842;52.272;8.052;2024-01-30T09:48:32;16.42;;;7.00;;
40959;SDS011;27842;52.272;8.052;2024-01-30T09:50:59;18.85;;;7.43;;
40959;SDS011;27842;52.272;8.052;2024-01-30T09:53:25;16.90;;;7.22;;
40959;SDS011;27842;52.272;8.052;2024-01-30T09:55:51;16.38;;;7.22;;
40959;SDS011;27842;52.272;8.052;2024-01-30T09:58:17;18.23;;;7.38;;
40959;SDS011;27842;52.272;8.052;2024-01-30T10:00:42;17.45;;;6.60;;
40959;SDS011;27842;52.272;8.052;2024-01-30T10:03:08;19.33;;;7.30;;
40959;SDS011;27842;52.272;8.052;2024-01-30T10:05:35;14.70;;;6.93;;
40959;SDS011;27842;52.272;8.052;2024-01-30T10:08:05;16.38;;;7.60;;
40959;SDS011;27842;52.272;8.052;2024-01-30T10:10:33;18.88;;;7.05;;
40959;SDS011;27842;52.272;8.052;2024-01-30T10:12:58;18.77;;;7.38;;
40959;SDS011;27842;52.272;8.052;2024-01-30T10:15:24;16.23;;;7.20;;
40959;SDS011;27842;52.272;8.052;2024-01-30T10:17:52;16.67;;;6.80;;
40959;SDS011;27842;52.272;8.052;2024-01-30T10:20:18;17.52;;;7.45;;
40959;SDS011;27842;52.272;8.052;2024-01-30T10:22:44;16.25;;;7.03;;
40959;SDS011;27842;52.272;8.052;2024-01-30T10:25:10;16.83;;;7.03;;
40959;SDS011;27842;52.272;8.052;2024-01-30T10:27:36;15.93;;;6.60;;
40959;SDS011;27842;52.272;8.052;2024-01-30T10:30:05;18.02;;;6.82;;
40959;SDS011;27842;52.272;8.052;2024-01-30T10:32:31;20.83;;;7.40;;
40959;SDS011;27842;52.272;8.052;2024-01-30T10:34:56;17.52;;;7.03;;
40959;SDS011;27842;52.272;8.052;2024-01-30T10:37:22;15.30;;;7.05;;
40959;SDS011;27842;52.272;8.052;2024-01-30T10:39:50;19.35;;;6.82;;
40959;SDS011;27842;52.272;8.052;2024-01-30T10:42:20;18.55;;;7.05;;
40959;SDS011;27842;52.272;8.052;2024-01-30T10:45:02;15.93;;;6.63;;
40959;SDS011;27842;52.272;8.052;2024-01-30T10:47:35;15.15;;;6.32;;
40959;SDS011;27842;52.272;8.052;2024-01-30T10:50:04;14.52;;;6.45;;
40959;SDS011;27842;52.272;8.052;2024-01-30T10:52:31;16.75;;;7.15;;
40959;SDS011;27842;52.272;8.052;2024-01-30T10:54:57;18.33;;;6.88;;
40959;SDS011;27842;52.272;8.052;2024-01-30T10:57:24;18.33;;;7.15;;
40959;SDS011;27842;52.272;8.052;2024-01-30T10:59:52;17.77;;;7.68;;
40959;SDS011;27842;52.272;8.052;2024-01-30T11:02:21;17.75;;;7.57;;
40959;SDS011;27842;52.272;8.052;2024-01-30T11:04:48;14.60;;;6.78;;
40959;SDS011;27842;52.272;8.052;2024-01-30T11:07:17;17.90;;;7.25;;
40959;SDS011;27842;52.272;8.052;2024-01-30T11:12:40;18.60;;;6.95;;
40959;SDS011;27842;52.272;8.052;2024-01-30T11:15:08;18.52;;;7.10;;
40959;SDS011;27842;52.272;8.052;2024-01-30T11:20:10;17.08;;;7.55;;
40959;SDS011;27842;52.272;8.052;2024-01-30T11:22:41;16.85;;;7.57;;
40959;SDS011;27842;52.272;8.052;2024-01-30T11:25:11;17.85;;;7.72;;
40959;SDS011;27842;52.272;8.052;2024-01-30T11:27:41;19.80;;;8.20;;
40959;SDS011;27842;52.272;8.052;2024-01-30T11:30:07;21.30;;;9.52;;
40959;SDS011;27842;52.272;8.052;2024-01-30T11:32:33;19.67;;;8.75;;
40959;SDS011;27842;52.272;8.052;2024-01-30T11:34:59;23.08;;;9.07;;
40959;SDS011;27842;52.272;8.052;2024-01-30T11:37:25;19.13;;;8.70;;
40959;SDS011;27842;52.272;8.052;2024-01-30T11:39:53;16.67;;;7.60;;
40959;SDS011;27842;52.272;8.052;2024-01-30T11:42:21;18.77;;;7.60;;
40959;SDS011;27842;52.272;8.052;2024-01-30T11:44:49;22.45;;;8.15;;
40959;SDS011;27842;52.272;8.052;2024-01-30T11:47:16;20.45;;;8.57;;
40959;SDS011;27842;52.272;8.052;2024-01-30T11:49:41;18.83;;;7.85;;
40959;SDS011;27842;52.272;8.052;2024-01-30T11:52:08;19.23;;;7.80;;
40959;SDS011;27842;52.272;8.052;2024-01-30T11:54:34;21.02;;;8.00;;
40959;SDS011;27842;52.272;8.052;2024-01-30T11:57:00;18.25;;;8.45;;
40959;SDS011;27842;52.272;8.052;2024-01-30T11:59:26;16.90;;;8.00;;
40959;SDS011;27842;52.272;8.052;2024-01-30T12:01:51;24.48;;;9.30;;
40959;SDS011;27842;52.272;8.052;2024-01-30T12:04:17;22.10;;;9.60;;
40959;SDS011;27842;52.272;8.052;2024-01-30T12:06:43;18.50;;;8.48;;
40959;SDS011;27842;52.272;8.052;2024-01-30T12:09:09;21.10;;;8.55;;
40959;SDS011;27842;52.272;8.052;2024-01-30T12:11:46;20.60;;;8.50;;
40959;SDS011;27842;52.272;8.052;2024-01-30T12:14:12;21.70;;;8.50;;
40959;SDS011;27842;52.272;8.052;2024-01-30T12:16:39;18.02;;;8.43;;
40959;SDS011;27842;52.272;8.052;2024-01-30T12:19:04;19.40;;;8.15;;
40959;SDS011;27842;52.272;8.052;2024-01-30T12:21:30;18.25;;;8.15;;
40959;SDS011;27842;52.272;8.052;2024-01-30T12:23:56;20.15;;;8.63;;
40959;SDS011;27842;52.272;8.052;2024-01-30T12:26:23;17.77;;;7.80;;
40959;SDS011;27842;52.272;8.052;2024-01-30T12:28:50;19.25;;;8.50;;
40959;SDS011;27842;52.272;8.052;2024-01-30T12:31:19;18.50;;;7.70;;
40959;SDS011;27842;52.272;8.052;2024-01-30T12:33:51;17.25;;;8.05;;
40959;SDS011;27842;52.272;8.052;2024-01-30T12:36:17;19.92;;;9.10;;
40959;SDS011;27842;52.272;8.052;2024-01-30T12:38:43;22.42;;;7.93;;
40959;SDS011;27842;52.272;8.052;2024-01-30T12:41:08;20.45;;;8.95;;
40959;SDS011;27842;52.272;8.052;2024-01-30T12:43:35;23.67;;;9.98;;
40959;SDS011;27842;52.272;8.052;2024-01-30T12:46:01;20.67;;;9.55;;
40959;SDS011;27842;52.272;8.052;2024-01-30T12:48:28;19.30;;;9.32;;
40959;SDS011;27842;52.272;8.052;2024-01-30T12:50:54;19.45;;;8.50;;
40959;SDS011;27842;52.272;8.052;2024-01-30T12:53:20;21.90;;;9.52;;
40959;SDS011;27842;52.272;8.052;2024-01-30T12:55:46;20.70;;;9.23;;
40959;SDS011;27842;52.272;8.052;2024-01-30T12:58:12;21.55;;;8.43;;
40959;SDS011;27842;52.272;8.052;2024-01-30T13:00:37;19.52;;;9.98;;
40959;SDS011;27842;52.272;8.052;2024-01-30T13:03:03;20.33;;;8.88;;
40959;SDS011;27842;52.272;8.052;2024-01-30T13:05:29;21.50;;;9.73;;
40959;SDS011;27842;52.272;8.052;2024-01-30T13:07:54;24.42;;;8.95;;
40959;SDS011;27842;52.272;8.052;2024-01-30T13:10:22;21.17;;;9.18;;
40959;SDS011;27842;52.272;8.052;2024-01-30T13:12:48;17.88;;;8.13;;
40959;SDS011;27842;52.272;8.052;2024-01-30T13:15:13;28.13;;;8.70;;
40959;SDS011;27842;52.272;8.052;2024-01-30T13:17:39;22.42;;;8.82;;
40959;SDS011;27842;52.272;8.052;2024-01-30T13:20:05;22.95;;;9.90;;
40959;SDS011;27842;52.272;8.052;2024-01-30T13:22:33;20.75;;;8.68;;
40959;SDS011;27842;52.272;8.052;2024-01-30T13:24:59;20.63;;;8.75;;
40959;SDS011;27842;52.272;8.052;2024-01-30T13:27:24;22.60;;;8.35;;
40959;SDS011;27842;52.272;8.052;2024-01-30T13:29:50;22.23;;;9.57;;
40959;SDS011;27842;52.272;8.052;2024-01-30T13:32:15;20.77;;;8.80;;
40959;SDS011;27842;52.272;8.052;2024-01-30T13:34:41;21.65;;;8.93;;
40959;SDS011;27842;52.272;8.052;2024-01-30T13:37:08;19.35;;;8.48;;
40959;SDS011;27842;52.272;8.052;2024-01-30T13:39:34;19.40;;;8.43;;
40959;SDS011;27842;52.272;8.052;2024-01-30T13:41:59;22.73;;;8.50;;
40959;SDS011;27842;52.272;8.052;2024-01-30T13:44:25;20.05;;;8.48;;
40959;SDS011;27842;52.272;8.052;2024-01-30T13:46:50;19.20;;;8.25;;
40959;SDS011;27842;52.272;8.052;2024-01-30T13:49:16;19.77;;;8.80;;
40959;SDS011;27842;52.272;8.052;2024-01-30T13:51:42;19.75;;;8.55;;
40959;SDS011;27842;52.272;8.052;2024-01-30T13:54:07;20.00;;;9.15;;
40959;SDS011;27842;52.272;8.052;2024-01-30T13:56:33;19.90;;;8.85;;
40959;SDS011;27842;52.272;8.052;2024-01-30T13:58:59;21.05;;;8.80;;
40959;SDS011;27842;52.272;8.052;2024-01-30T14:01:26;19.63;;;8.85;;
40959;SDS011;27842;52.272;8.052;2024-01-30T14:03:52;24.08;;;8.02;;
40959;SDS011;27842;52.272;8.052;2024-01-30T14:06:18;19.85;;;8.20;;
40959;SDS011;27842;52.272;8.052;2024-01-30T14:08:47;18.45;;;8.05;;
40959;SDS011;27842;52.272;8.052;2024-01-30T14:11:12;24.05;;;9.15;;
40959;SDS011;27842;52.272;8.052;2024-01-30T14:13:38;22.08;;;9.60;;
40959;SDS011;27842;52.272;8.052;2024-01-30T14:16:04;23.90;;;10.27;;
40959;SDS011;27842;52.272;8.052;2024-01-30T14:18:30;27.08;;;11.93;;
40959;SDS011;27842;52.272;8.052;2024-01-30T14:20:55;22.55;;;10.88;;
40959;SDS011;27842;52.272;8.052;2024-01-30T14:23:21;18.23;;;8.10;;
40959;SDS011;27842;52.272;8.052;2024-01-30T14:25:46;16.45;;;7.65;;
40959;SDS011;27842;52.272;8.052;2024-01-30T14:28:12;20.30;;;8.10;;
40959;SDS011;27842;52.272;8.052;2024-01-30T14:30:38;20.05;;;8.18;;
40959;SDS011;27842;52.272;8.052;2024-01-30T14:33:03;18.75;;;7.82;;